createdAt,value
2019-04-30T00:03:02.189Z,1001.98
2019-04-30T00:06:34.636Z,1002.11
2019-04-30T00:10:06.160Z,1002.31
2019-04-30T00:13:36.290Z,1001.85
2019-04-30T00:17:06.442Z,1001.88
2019-04-30T00:20:38.757Z,1002.25
2019-04-30T00:24:10.252Z,1002.26
2019-04-30T00:27:40.460Z,1002.42
2019-04-30T00:31:10.576Z,1002.39
2019-04-30T00:34:40.665Z,1002.55
2019-04-30T00:38:10.629Z,1002.65
2019-04-30T00:41:44.056Z,1002.7
2019-04-30T00:45:17.377Z,1002.58
2019-04-30T00:48:47.571Z,1002.4
2019-04-30T00:52:17.588Z,1002.51
2019-04-30T00:55:48.498Z,1002.82
2019-04-30T00:59:18.706Z,1002.95
2019-04-30T01:00:19.623Z,1003.05
2019-04-30T01:04:00.152Z,1003.73
2019-04-30T01:07:31.177Z,1003.92
2019-04-30T01:11:06.471Z,1003.62
2019-04-30T01:14:39.364Z,1003.43
2019-04-30T01:18:09.532Z,1003.54
2019-04-30T01:21:46.542Z,1003.49
2019-04-30T01:25:18.718Z,1003.33
2019-04-30T01:28:53.681Z,1003.26
2019-04-30T01:32:23.938Z,1003.27
2019-04-30T01:35:54.019Z,1003.46
2019-04-30T01:39:28.480Z,1003.25
2019-04-30T01:43:01.471Z,1003.19
2019-04-30T01:46:31.437Z,1003.14
2019-04-30T01:50:04.926Z,1003
2019-04-30T01:53:35.156Z,1002.67
2019-04-30T01:57:50.388Z,1002.8
2019-04-30T02:01:22.438Z,1002.55
2019-04-30T02:04:52.473Z,1002.8
2019-04-30T02:08:23.463Z,1002.82
2019-04-30T02:11:53.465Z,1002.75
2019-04-30T02:15:23.659Z,1002.81
2019-04-30T02:18:53.678Z,1002.55
2019-04-30T02:22:23.648Z,1002.58
2019-04-30T02:25:53.711Z,1002.38
2019-04-30T02:29:23.827Z,1002.26
2019-04-30T02:32:53.868Z,1002.43
2019-04-30T02:36:46.277Z,1002.51
2019-04-30T02:40:16.357Z,1002.67
2019-04-30T02:43:49.779Z,1002.93
2019-04-30T02:47:21.710Z,1002.93
2019-04-30T02:50:52.872Z,1003.07
2019-04-30T02:54:29.669Z,1003.03
2019-04-30T02:57:59.937Z,1002.82
2019-04-30T03:00:20.598Z,1002.78
2019-04-30T03:03:51.079Z,1002.51
2019-04-30T03:07:21.199Z,1002.4
2019-04-30T03:10:52.922Z,1002.27
2019-04-30T03:14:23.052Z,1001.97
2019-04-30T03:18:02.200Z,1001.78
2019-04-30T03:21:41.923Z,1001.94
2019-04-30T03:25:12.045Z,1002.17
2019-04-30T03:28:42.153Z,1001.84
2019-04-30T03:32:13.949Z,1001.76
2019-04-30T03:35:47.706Z,1002.04
2019-04-30T03:39:23.792Z,1001.97
2019-04-30T03:42:53.862Z,1001.85
2019-04-30T03:46:24.084Z,1001.88
2019-04-30T03:49:54.124Z,1001.77
2019-04-30T03:53:24.194Z,1002
2019-04-30T03:56:57.032Z,1002.13
2019-04-30T04:00:42.568Z,1002.47
2019-04-30T04:04:20.115Z,1002.94
2019-04-30T04:07:59.887Z,1003.17
2019-04-30T04:11:35.249Z,1003.77
2019-04-30T04:15:05.484Z,1004.39
2019-04-30T04:18:35.540Z,1004.78
2019-04-30T04:22:05.629Z,1004.96
2019-04-30T04:25:35.778Z,1005.55
2019-04-30T04:29:05.956Z,1006.29
2019-04-30T04:32:35.941Z,1006.73
2019-04-30T04:36:05.972Z,1007.84
2019-04-30T04:39:36.176Z,1008.51
2019-04-30T04:43:06.219Z,1008.72
2019-04-30T04:46:36.249Z,1009.24
2019-04-30T04:50:10.007Z,1009.24
2019-04-30T04:53:40.459Z,1010.08
2019-04-30T04:57:17.714Z,1011.68
2019-04-30T05:00:15.993Z,1011.97
2019-04-30T05:03:46.051Z,1012.33
2019-04-30T05:07:16.124Z,1012.36
2019-04-30T05:10:46.192Z,1012.01
2019-04-30T05:14:19.008Z,1012.29
2019-04-30T05:17:49.513Z,1013.43
2019-04-30T05:21:19.747Z,1013.16
2019-04-30T05:24:49.835Z,1013.96
2019-04-30T05:28:19.909Z,1014.3
2019-04-30T05:31:49.956Z,1013.75
2019-04-30T05:35:20.041Z,1012.82
2019-04-30T05:38:50.085Z,1012.49
2019-04-30T05:42:20.089Z,1012.05
2019-04-30T05:45:50.122Z,1011.79
2019-04-30T05:49:20.481Z,1012.26
2019-04-30T05:52:50.531Z,1012.24
2019-04-30T05:56:20.662Z,1012.64
2019-04-30T05:59:50.799Z,1012.56
2019-04-30T06:03:28.184Z,1013.13
2019-04-30T06:07:02.539Z,1013.58
2019-04-30T06:10:39.721Z,1013.73
2019-04-30T06:14:49.917Z,1014.27
2019-04-30T06:18:21.716Z,1014.57
2019-04-30T06:21:51.903Z,1015.08
2019-04-30T06:25:31.783Z,1015.46
2019-04-30T06:29:09.143Z,1015.45
2019-04-30T06:32:39.606Z,1015.42
2019-04-30T06:36:11.198Z,1015.57
2019-04-30T06:39:41.447Z,1016.03
2019-04-30T06:43:12.018Z,1016.31
2019-04-30T06:46:42.324Z,1017.3
2019-04-30T06:50:12.749Z,1016.85
2019-04-30T06:53:42.920Z,1017.78
2019-04-30T06:57:13.018Z,1018.01
2019-04-30T07:00:16.141Z,1019.12
2019-04-30T07:03:46.279Z,1019.48
2019-04-30T07:07:21.329Z,1020.46
2019-04-30T07:11:29.784Z,1020.37
2019-04-30T07:15:00.856Z,1020.91
2019-04-30T07:18:30.922Z,1021.3
2019-04-30T07:22:00.962Z,1021.56
2019-04-30T07:25:31.016Z,1022.16
2019-04-30T07:29:02.577Z,1022.02
2019-04-30T07:32:32.839Z,1022.97
2019-04-30T07:36:03.087Z,1022.28
2019-04-30T07:39:33.512Z,1023.13
2019-04-30T07:43:03.674Z,1023.44
2019-04-30T07:46:35.350Z,1023.25
2019-04-30T07:50:10.968Z,1023.74
2019-04-30T07:53:41.197Z,1024.32
2019-04-30T07:57:11.272Z,1024.68
2019-04-30T08:00:41.350Z,1025.7
2019-04-30T08:04:51.150Z,1025.43
2019-04-30T08:08:24.539Z,1026.33
2019-04-30T08:11:55.470Z,1027.08
2019-04-30T08:15:26.557Z,1027.64
2019-04-30T08:18:56.656Z,1027.84
2019-04-30T08:22:26.834Z,1028.32
2019-04-30T08:25:58.627Z,1027.9
2019-04-30T08:29:29.481Z,1028.65
2019-04-30T08:32:59.770Z,1029.62
2019-04-30T08:36:29.997Z,1028.6
2019-04-30T08:40:03.521Z,1030.07
2019-04-30T08:43:33.782Z,1028.98
2019-04-30T08:47:03.861Z,1030.34
2019-04-30T08:50:33.929Z,1032.2
2019-04-30T08:54:04.111Z,1032.27
2019-04-30T08:57:34.270Z,1034.27
2019-04-30T09:00:17.170Z,1035.69
2019-04-30T09:03:50.998Z,1035.5
2019-04-30T09:07:21.377Z,1036.54
2019-04-30T09:10:51.504Z,1036.21
2019-04-30T09:14:21.578Z,1038.26
2019-04-30T09:18:00.691Z,1037.66
2019-04-30T09:21:35.867Z,1037.98
2019-04-30T09:25:06.044Z,1037.64
2019-04-30T09:28:36.098Z,1038.12
2019-04-30T09:32:06.209Z,1038.14
2019-04-30T09:35:36.224Z,1037.63
2019-04-30T09:39:08.786Z,1039.7
2019-04-30T09:42:39.129Z,1042.2
2019-04-30T09:46:17.881Z,1042.76
2019-04-30T09:49:52.574Z,1042.1
2019-04-30T09:53:22.629Z,1041.69
2019-04-30T09:56:52.866Z,1041.23
2019-04-30T10:00:23.141Z,1041.99
2019-04-30T10:03:53.501Z,1043.01
2019-04-30T10:07:23.916Z,1042.2
2019-04-30T10:11:12.630Z,1041.67
2019-04-30T10:14:42.809Z,1043.05
2019-04-30T10:18:14.559Z,1044.27
2019-04-30T10:21:44.626Z,1046.58
2019-04-30T10:25:14.903Z,1047.95
2019-04-30T10:28:45.826Z,1049.58
2019-04-30T10:32:15.846Z,1051.04
2019-04-30T10:35:46.404Z,1053.31
2019-04-30T10:39:16.630Z,1056.32
2019-04-30T10:42:48.755Z,1058.55
2019-04-30T10:46:19.319Z,1059.55
2019-04-30T10:49:49.433Z,1059.6
2019-04-30T10:53:19.491Z,1060.01
2019-04-30T10:56:51.364Z,1061.97
2019-04-30T11:00:16.383Z,1061.78
2019-04-30T11:03:46.415Z,1060.54
2019-04-30T11:07:18.534Z,1058.08
2019-04-30T11:10:48.792Z,1056.08
2019-04-30T11:14:18.892Z,1058.36
2019-04-30T11:17:49.706Z,1058.82
2019-04-30T11:21:20.958Z,1057.76
2019-04-30T11:24:58.834Z,1059.01
2019-04-30T11:28:31.986Z,1056.53
2019-04-30T11:32:09.363Z,1059.3
2019-04-30T11:35:39.680Z,1059.8
2019-04-30T11:39:15.245Z,1059.25
2019-04-30T11:42:45.347Z,1060.92
2019-04-30T11:47:09.973Z,1059.55
2019-04-30T11:50:40.063Z,1058.01
2019-04-30T11:54:10.217Z,1058.96
2019-04-30T11:57:40.347Z,1060.67
2019-04-30T12:01:12.049Z,1061.21
2019-04-30T12:04:42.081Z,1057.68
2019-04-30T12:08:19.341Z,1056.51
2019-04-30T12:11:50.722Z,1055.15
2019-04-30T12:15:20.775Z,1053.48
2019-04-30T12:18:50.764Z,1051.74
2019-04-30T12:22:21.807Z,1053.03
2019-04-30T12:25:51.851Z,1054.19
2019-04-30T12:29:21.940Z,1058.71
2019-04-30T12:32:51.991Z,1061.69
2019-04-30T12:36:22.478Z,1062.16
2019-04-30T12:39:52.595Z,1063.36
2019-04-30T12:43:22.734Z,1060.28
2019-04-30T12:46:52.859Z,1059.2
2019-04-30T12:50:29.213Z,1061.69
2019-04-30T12:54:03.313Z,1063.25
2019-04-30T12:57:39.262Z,1062.18
2019-04-30T13:00:16.317Z,1058.8
2019-04-30T13:03:55.934Z,1056.5
2019-04-30T13:07:30.413Z,1060.2
2019-04-30T13:11:01.505Z,1063.5
2019-04-30T13:14:32.071Z,1066.38
2019-04-30T13:18:02.768Z,1067.97
2019-04-30T13:21:32.868Z,1069.26
2019-04-30T13:25:04.924Z,1070.85
2019-04-30T13:28:49.867Z,1073.45
2019-04-30T13:32:29.571Z,1077.36
2019-04-30T13:36:02.461Z,1081
2019-04-30T13:39:49.889Z,1078.63
2019-04-30T13:43:58.729Z,1077.49
2019-04-30T13:47:29.343Z,1071.04
2019-04-30T13:50:59.508Z,1066.41
2019-04-30T13:54:29.516Z,1071.46
2019-04-30T13:57:59.532Z,1074.3
2019-04-30T14:01:29.690Z,1077.09
2019-04-30T14:05:12.243Z,1080.77
2019-04-30T14:08:46.111Z,1083.49
2019-04-30T14:12:16.315Z,1086.83
2019-04-30T14:15:47.848Z,1088.05
2019-04-30T14:19:19.550Z,1091.99
2019-04-30T14:22:49.821Z,1089.3
2019-04-30T14:26:20.924Z,1087.11
2019-04-30T14:29:51.061Z,1088.25
2019-04-30T14:33:26.253Z,1088.23
2019-04-30T14:36:56.945Z,1088.07
2019-04-30T14:40:29.686Z,1086.82
2019-04-30T14:44:07.042Z,1086.87
2019-04-30T14:47:49.919Z,1091.84
2019-04-30T14:51:20.672Z,1094.37
2019-04-30T14:54:59.536Z,1093.09
2019-04-30T14:58:58.035Z,1093.45
2019-04-30T15:00:59.362Z,1091.04
2019-04-30T15:04:29.635Z,1087.35
2019-04-30T15:08:00.935Z,1082.98
2019-04-30T15:11:31.884Z,1083.54
2019-04-30T15:15:02.474Z,1085.52
2019-04-30T15:18:32.634Z,1079
2019-04-30T15:22:03.973Z,1070.32
2019-04-30T15:25:34.613Z,1067.11
2019-04-30T15:29:11.764Z,1061.46
2019-04-30T15:32:46.930Z,1056.48
2019-04-30T15:36:16.994Z,1053.7
2019-04-30T15:39:48.861Z,1050.24
2019-04-30T15:43:19.248Z,1048.94
2019-04-30T15:46:49.382Z,1048
2019-04-30T15:50:19.636Z,1048.28
2019-04-30T15:53:49.800Z,1047.23
2019-04-30T15:57:19.962Z,1043.64
2019-04-30T16:00:50.104Z,1041.38
2019-04-30T16:04:29.626Z,1037.7
2019-04-30T16:09:08.526Z,1036.09
2019-04-30T16:13:00.782Z,1033.23
2019-04-30T16:16:35.276Z,1031.23
2019-04-30T16:20:05.683Z,1031.73
2019-04-30T16:23:35.813Z,1030.44
2019-04-30T16:27:06.667Z,1028.69
2019-04-30T16:30:38.474Z,1029.07
2019-04-30T16:34:08.556Z,1028.41
2019-04-30T16:37:38.789Z,1026.77
2019-04-30T16:41:08.999Z,1025.32
2019-04-30T16:44:39.144Z,1023.75
2019-04-30T16:48:09.806Z,1021.46
2019-04-30T16:51:42.084Z,1019.85
2019-04-30T16:55:12.396Z,1018.4
2019-04-30T16:59:18.444Z,1017.22
2019-04-30T17:00:16.930Z,1016.86
2019-04-30T17:03:50.515Z,1016.21
2019-04-30T17:07:28.894Z,1016.4
2019-04-30T17:11:59.488Z,1016.12
2019-04-30T17:15:30.398Z,1015.85
2019-04-30T17:19:00.429Z,1015.72
2019-04-30T17:22:31.244Z,1015.25
2019-04-30T17:26:01.468Z,1014.71
2019-04-30T17:29:31.581Z,1014.77
2019-04-30T17:33:02.635Z,1014.63
2019-04-30T17:36:32.787Z,1014.58
2019-04-30T17:40:05.325Z,1014.43
2019-04-30T17:43:35.410Z,1014.35
2019-04-30T17:47:05.497Z,1014.17
2019-04-30T17:50:35.729Z,1014.41
2019-04-30T17:54:13.817Z,1014.05
2019-04-30T17:57:43.963Z,1013.98
2019-04-30T18:01:14.297Z,1013.79
2019-04-30T18:04:44.508Z,1013.85
2019-04-30T18:08:14.578Z,1013.51
2019-04-30T18:11:44.802Z,1013.37
2019-04-30T18:15:19.487Z,1013.28
2019-04-30T18:18:55.342Z,1011.73
2019-04-30T18:22:37.222Z,1010.8
2019-04-30T18:26:11.112Z,1010.68
2019-04-30T18:29:41.132Z,1010.41
2019-04-30T18:33:11.307Z,1010.35
2019-04-30T18:36:41.378Z,1009.78
2019-04-30T18:40:11.788Z,1009.24
2019-04-30T18:43:41.909Z,1009.26
2019-04-30T18:47:12.059Z,1008.43
2019-04-30T18:50:42.150Z,1007.59
2019-04-30T18:54:12.313Z,1007.34
2019-04-30T18:57:42.494Z,1006.6
2019-04-30T19:00:24.650Z,1006.78
2019-04-30T19:03:54.758Z,1006.76
2019-04-30T19:07:35.759Z,1005.55
2019-04-30T19:13:38.161Z,1005.35
2019-04-30T19:17:31.172Z,1004.46
2019-04-30T19:21:01.409Z,1004.2
2019-04-30T19:24:31.520Z,1002.42
2019-04-30T19:28:11.209Z,1000.37
2019-04-30T19:31:44.131Z,999.73
2019-04-30T19:35:15.832Z,998.43
2019-04-30T19:38:45.949Z,998.1
2019-04-30T19:42:16.127Z,997.67
2019-04-30T19:45:46.259Z,996.84
2019-04-30T19:49:16.257Z,996.56
2019-04-30T19:52:46.231Z,996.71
2019-04-30T19:56:16.283Z,996.27
2019-04-30T19:59:46.338Z,996.24
2019-04-30T20:03:16.456Z,996.19
2019-04-30T20:06:48.593Z,996.4
2019-04-30T20:10:19.548Z,996.04
2019-04-30T20:13:49.796Z,996.23
2019-04-30T20:17:19.796Z,996.37
2019-04-30T20:20:52.704Z,996.41
2019-04-30T20:24:22.843Z,996.83
2019-04-30T20:27:52.885Z,997.46
2019-04-30T20:31:23.013Z,996.95
2019-04-30T20:34:52.988Z,996.7
2019-04-30T20:39:10.288Z,996.94
2019-04-30T20:42:40.446Z,997.19
2019-04-30T20:46:10.524Z,997.57
2019-04-30T20:49:40.559Z,997.94
2019-04-30T20:53:10.692Z,998.02
2019-04-30T20:56:40.797Z,998.06
2019-04-30T21:00:14.137Z,998.21
2019-04-30T21:03:44.264Z,998.25
2019-04-30T21:07:14.399Z,998.43
2019-04-30T21:10:44.411Z,998.97
2019-04-30T21:14:14.331Z,999.26
2019-04-30T21:17:44.386Z,999.66
2019-04-30T21:21:14.358Z,999.86
2019-04-30T21:24:44.487Z,999.57
2019-04-30T21:28:14.553Z,999.55
2019-04-30T21:33:09.351Z,999.8
2019-04-30T21:36:39.605Z,1000.48
2019-04-30T21:40:09.765Z,1000.32
2019-04-30T21:43:39.960Z,999.92
2019-04-30T21:47:09.992Z,999.53
2019-04-30T21:50:40.112Z,999.06
2019-04-30T21:54:10.215Z,998.83
2019-04-30T21:57:41.386Z,998.77
2019-04-30T22:01:21.043Z,998.89
2019-04-30T22:04:51.175Z,999.26
2019-04-30T22:08:21.226Z,999.47
2019-04-30T22:11:51.359Z,999.62
2019-04-30T22:15:21.369Z,998.91
2019-04-30T22:18:51.462Z,998
2019-04-30T22:22:21.492Z,998.23
2019-04-30T22:25:51.529Z,998.69
2019-04-30T22:29:21.463Z,998.38
2019-04-30T22:32:51.562Z,998.43
2019-04-30T22:36:29.780Z,998.81
2019-04-30T22:40:03.678Z,998.62
2019-04-30T22:43:33.939Z,998.35
2019-04-30T22:47:03.967Z,998.04
2019-04-30T22:50:33.963Z,997.9
2019-04-30T22:54:04.071Z,997.84
2019-04-30T22:57:34.200Z,997.3
2019-04-30T23:00:23.323Z,996.44
2019-04-30T23:03:54.731Z,996.16
2019-04-30T23:07:24.881Z,996.05
2019-04-30T23:10:55.006Z,995.61
2019-04-30T23:14:25.183Z,995.41
2019-04-30T23:17:55.381Z,994.81
2019-04-30T23:21:25.497Z,994.23
2019-04-30T23:24:55.524Z,993.73
2019-04-30T23:28:25.708Z,993.38
2019-04-30T23:31:55.799Z,992.83
2019-04-30T23:35:25.915Z,992.38
2019-04-30T23:38:55.840Z,991.55
2019-04-30T23:42:26.014Z,991.23
2019-04-30T23:45:56.872Z,991.04
2019-04-30T23:49:26.938Z,990.59
2019-04-30T23:52:56.948Z,990.71
2019-04-30T23:56:27.081Z,990.44
2019-04-30T23:59:57.188Z,990.26
